Terminal Aerodrome Forecast
Issued by NWS

Home | Current Version | Previous Version | Text Only | Print | Product List | Glossary On
Versions: 1 2 3 4 5 6 7 8 9 10 11 12 13 14
000
FTUS42 KMHX 011100
TAFOAJ
TAF
KOAJ 011121Z 0112/0212 22003KT P6SM OVC250
     FM011800 19010KT P6SM OVC150
     FM020100 18008KT P6SM OVC040
     FM020600 20010KT 5SM -RA OVC015
      AMD LTD TO CLD VIS AND WIND=

USA.gov is the U.S. government's official web portal to all federal, state and local government web resources and services.